Seaboard Ranger — A8RF7 — position and weather

sailwx.info

Track history (hours):
 
Tides and Currents Weather Stations Pressure Air Temp Water Temp Dewpoint Dewpoint Depression Visibility Wind Speed Wind Dir Waves Ship Positions

Seaboard Ranger

Last reported at 2018-May-21 04:54 UTC. Time now 2018-May-21 14:46 UTC.
Position N 25°29' W 079°39'.

Length 148 m; draft 7.8 m.

Type: Cargo ship. MMSI: 636091654.

Date/timePositionNaut miles runAvg speedWind from/ knotsBaromVisibWave heightAir tempDewpointWater temp
2018-May-21 04:54N 25°29' W 079°39'614.8
2018-May-21 04:28N 25°35' W 079°40'914.3
2018-May-21 03:51N 25°44' W 079°42'616.3
2018-May-21 03:30N 25°45' W 079°48'816.1
2018-May-21 03:00N 25°45' W 079°57'713.4
2018-May-21 02:30N 25°46' W 080°05'4 8.8
2018-May-21 02:01N 25°46' W 080°10'1 1.1
2018-May-21 01:29N 25°46' W 080°10'0 0.0
2018-May-21 00:59N 25°46' W 080°10'0 0.0
2018-May-21 00:26N 25°46' W 080°10'0 0.0
2018-May-20 23:59N 25°46' W 080°10'0 0.0
2018-May-20 23:26N 25°46' W 080°10'0 0.0
2018-May-20 22:52N 25°46' W 080°10'0 0.0
2018-May-20 22:28N 25°46' W 080°10'0 0.0
2018-May-20 21:58N 25°46' W 080°10'0 0.0
2018-May-20 21:28N 25°46' W 080°10'0 0.0
2018-May-20 20:57N 25°46' W 080°10'0 0.0
2018-May-20 20:30N 25°46' W 080°10'0 0.0
2018-May-20 19:54N 25°46' W 080°10'0 0.0
2018-May-20 19:27N 25°46' W 080°10'0 0.0
2018-May-20 19:00N 25°46' W 080°10'0 0.0
2018-May-20 18:29N 25°46' W 080°10'0 0.0
2018-May-20 17:59N 25°46' W 080°10'0 0.0
2018-May-20 17:29N 25°46' W 080°10'0 0.0
2018-May-20 16:59N 25°46' W 080°10'0 0.0
2018-May-20 16:29N 25°46' W 080°10'0 0.0
2018-May-20 15:58N 25°46' W 080°10'0 0.0
2018-May-20 15:28N 25°46' W 080°10'0 0.0
2018-May-20 14:58N 25°46' W 080°10'0 0.0
2018-May-20 14:28N 25°46' W 080°10'0 0.0
2018-May-20 14:00N 25°46' W 080°10'0 0.0
2018-May-20 13:30N 25°46' W 080°10'0 0.0
2018-May-20 12:57N 25°46' W 080°10'0 0.0
2018-May-20 12:24N 25°46' W 080°10'0 0.0
2018-May-20 12:00N 25°46' W 080°10'0 0.0
2018-May-20 11:29N 25°46' W 080°10'0 0.5
2018-May-20 11:00N 25°46' W 080°10'3 6.3
2018-May-20 10:30N 25°45' W 080°07'4 8.0
2018-May-20 10:00N 25°45' W 080°02'2 4.6
2018-May-20 09:31N 25°47' W 080°03'1 2.1
2018-May-20 09:00N 25°48' W 080°02'4 9.2
2018-May-20 08:30N 25°43' W 080°02'815.6
2018-May-20 08:00N 25°36' W 079°59'815.2
2018-May-20 07:30N 25°29' W 079°56'  
2018-May-14 07:51N 25°28' W 079°38'514.4
2018-May-14 07:30N 25°33' W 079°39'714.2
2018-May-14 07:00N 25°40' W 079°41'612.4
2018-May-14 06:30N 25°44' W 079°46'816.3
2018-May-14 06:00N 25°45' W 079°55'815.5
2018-May-14 05:30N 25°45' W 080°03'5 9.4
2018-May-14 05:00N 25°46' W 080°09'1 2.9
2018-May-14 04:30N 25°46' W 080°10'0 0.1
2018-May-14 04:00N 25°46' W 080°10'0 0.0
2018-May-14 03:30N 25°46' W 080°10'0 0.0
2018-May-14 03:00N 25°46' W 080°10'0 0.0
2018-May-14 02:29N 25°46' W 080°10'0 0.0
2018-May-14 01:59N 25°46' W 080°10'0 0.0
2018-May-14 01:29N 25°46' W 080°10'0 0.0
2018-May-14 00:59N 25°46' W 080°10'0 0.0
2018-May-14 00:28N 25°46' W 080°10'0 0.0
2018-May-13 23:58N 25°46' W 080°10'0 0.0
2018-May-13 23:28N 25°46' W 080°10'0 0.0
2018-May-13 23:00N 25°46' W 080°10'0 0.0
2018-May-13 22:28N 25°46' W 080°10'0 0.0
2018-May-13 22:00N 25°46' W 080°10'0 0.0
2018-May-13 21:27N 25°46' W 080°10'0 0.0
2018-May-13 21:00N 25°46' W 080°10'0 0.0
2018-May-13 20:30N 25°46' W 080°10'0 0.0
2018-May-13 20:00N 25°46' W 080°10'0 0.0
2018-May-13 19:29N 25°46' W 080°10'0 0.0
2018-May-13 18:59N 25°46' W 080°10'0 0.0
2018-May-13 18:26N 25°46' W 080°10'0 0.0
2018-May-13 17:59N 25°46' W 080°10'0 0.0
2018-May-13 17:28N 25°46' W 080°10'0 0.0
2018-May-13 16:58N 25°46' W 080°10'0 0.0
2018-May-13 16:28N 25°46' W 080°10'0 0.0
2018-May-13 15:58N 25°46' W 080°10'0 0.0
2018-May-13 15:28N 25°46' W 080°10'0 0.0
2018-May-13 15:00N 25°46' W 080°10'0 0.0
2018-May-13 14:27N 25°46' W 080°10'0 0.0
2018-May-13 14:00N 25°46' W 080°10'0 0.0
2018-May-13 13:30N 25°46' W 080°10'0 0.0
2018-May-13 12:59N 25°46' W 080°10'0 0.0
2018-May-13 12:29N 25°46' W 080°10'0 0.0
2018-May-13 11:59N 25°46' W 080°10'0 0.0
2018-May-13 11:29N 25°46' W 080°10'0 0.0
2018-May-13 10:59N 25°46' W 080°10'0 0.0
2018-May-13 10:28N 25°46' W 080°10'0 0.0
2018-May-13 09:58N 25°46' W 080°10'0 0.4
2018-May-13 09:30N 25°46' W 080°10'4 7.4
2018-May-13 09:00N 25°46' W 080°06'510.7
2018-May-13 08:31N 25°42' W 080°02'815.8
2018-May-13 08:00N 25°35' W 079°58'917.2
2018-May-13 07:30N 25°27' W 079°54'  
Track history (hours):
 
Tides and Currents Weather Stations Pressure Air Temp Water Temp Dewpoint Dewpoint Depression Visibility Wind Speed Wind Dir Waves Ship Positions

Seaboard Ranger

Last reported at 2018-May-21 04:54 UTC. Time now 2018-May-21 14:46 UTC.
Position N 25°29' W 079°39'.

Length 148 m; draft 7.8 m.

Type: Cargo ship. MMSI: 636091654.

Date/timePositionNaut miles runAvg speedWind from/ knotsBaromVisibWave heightAir tempDewpointWater temp
2018-May-21 04:54N 25°29' W 079°39'614.8
2018-May-21 04:28N 25°35' W 079°40'914.3
2018-May-21 03:51N 25°44' W 079°42'616.3
2018-May-21 03:30N 25°45' W 079°48'816.1
2018-May-21 03:00N 25°45' W 079°57'713.4
2018-May-21 02:30N 25°46' W 080°05'4 8.8
2018-May-21 02:01N 25°46' W 080°10'1 1.1
2018-May-21 01:29N 25°46' W 080°10'0 0.0
2018-May-21 00:59N 25°46' W 080°10'0 0.0
2018-May-21 00:26N 25°46' W 080°10'0 0.0
2018-May-20 23:59N 25°46' W 080°10'0 0.0
2018-May-20 23:26N 25°46' W 080°10'0 0.0
2018-May-20 22:52N 25°46' W 080°10'0 0.0
2018-May-20 22:28N 25°46' W 080°10'0 0.0
2018-May-20 21:58N 25°46' W 080°10'0 0.0
2018-May-20 21:28N 25°46' W 080°10'0 0.0
2018-May-20 20:57N 25°46' W 080°10'0 0.0
2018-May-20 20:30N 25°46' W 080°10'0 0.0
2018-May-20 19:54N 25°46' W 080°10'0 0.0
2018-May-20 19:27N 25°46' W 080°10'0 0.0
2018-May-20 19:00N 25°46' W 080°10'0 0.0
2018-May-20 18:29N 25°46' W 080°10'0 0.0
2018-May-20 17:59N 25°46' W 080°10'0 0.0
2018-May-20 17:29N 25°46' W 080°10'0 0.0
2018-May-20 16:59N 25°46' W 080°10'0 0.0
2018-May-20 16:29N 25°46' W 080°10'0 0.0
2018-May-20 15:58N 25°46' W 080°10'0 0.0
2018-May-20 15:28N 25°46' W 080°10'0 0.0
2018-May-20 14:58N 25°46' W 080°10'0 0.0
2018-May-20 14:28N 25°46' W 080°10'0 0.0
2018-May-20 14:00N 25°46' W 080°10'0 0.0
2018-May-20 13:30N 25°46' W 080°10'0 0.0
2018-May-20 12:57N 25°46' W 080°10'0 0.0
2018-May-20 12:24N 25°46' W 080°10'0 0.0
2018-May-20 12:00N 25°46' W 080°10'0 0.0
2018-May-20 11:29N 25°46' W 080°10'0 0.5
2018-May-20 11:00N 25°46' W 080°10'3 6.3
2018-May-20 10:30N 25°45' W 080°07'4 8.0
2018-May-20 10:00N 25°45' W 080°02'2 4.6
2018-May-20 09:31N 25°47' W 080°03'1 2.1
2018-May-20 09:00N 25°48' W 080°02'4 9.2
2018-May-20 08:30N 25°43' W 080°02'815.6
2018-May-20 08:00N 25°36' W 079°59'815.2
2018-May-20 07:30N 25°29' W 079°56'  
2018-May-14 07:51N 25°28' W 079°38'514.4
2018-May-14 07:30N 25°33' W 079°39'714.2
2018-May-14 07:00N 25°40' W 079°41'612.4
2018-May-14 06:30N 25°44' W 079°46'816.3
2018-May-14 06:00N 25°45' W 079°55'815.5
2018-May-14 05:30N 25°45' W 080°03'5 9.4
2018-May-14 05:00N 25°46' W 080°09'1 2.9
2018-May-14 04:30N 25°46' W 080°10'0 0.1
2018-May-14 04:00N 25°46' W 080°10'0 0.0
2018-May-14 03:30N 25°46' W 080°10'0 0.0
2018-May-14 03:00N 25°46' W 080°10'0 0.0
2018-May-14 02:29N 25°46' W 080°10'0 0.0
2018-May-14 01:59N 25°46' W 080°10'0 0.0
2018-May-14 01:29N 25°46' W 080°10'0 0.0
2018-May-14 00:59N 25°46' W 080°10'0 0.0
2018-May-14 00:28N 25°46' W 080°10'0 0.0
2018-May-13 23:58N 25°46' W 080°10'0 0.0
2018-May-13 23:28N 25°46' W 080°10'0 0.0
2018-May-13 23:00N 25°46' W 080°10'0 0.0
2018-May-13 22:28N 25°46' W 080°10'0 0.0
2018-May-13 22:00N 25°46' W 080°10'0 0.0
2018-May-13 21:27N 25°46' W 080°10'0 0.0
2018-May-13 21:00N 25°46' W 080°10'0 0.0
2018-May-13 20:30N 25°46' W 080°10'0 0.0
2018-May-13 20:00N 25°46' W 080°10'0 0.0
2018-May-13 19:29N 25°46' W 080°10'0 0.0
2018-May-13 18:59N 25°46' W 080°10'0 0.0
2018-May-13 18:26N 25°46' W 080°10'0 0.0
2018-May-13 17:59N 25°46' W 080°10'0 0.0
2018-May-13 17:28N 25°46' W 080°10'0 0.0
2018-May-13 16:58N 25°46' W 080°10'0 0.0
2018-May-13 16:28N 25°46' W 080°10'0 0.0
2018-May-13 15:58N 25°46' W 080°10'0 0.0
2018-May-13 15:28N 25°46' W 080°10'0 0.0
2018-May-13 15:00N 25°46' W 080°10'0 0.0
2018-May-13 14:27N 25°46' W 080°10'0 0.0
2018-May-13 14:00N 25°46' W 080°10'0 0.0
2018-May-13 13:30N 25°46' W 080°10'0 0.0
2018-May-13 12:59N 25°46' W 080°10'0 0.0
2018-May-13 12:29N 25°46' W 080°10'0 0.0
2018-May-13 11:59N 25°46' W 080°10'0 0.0
2018-May-13 11:29N 25°46' W 080°10'0 0.0
2018-May-13 10:59N 25°46' W 080°10'0 0.0
2018-May-13 10:28N 25°46' W 080°10'0 0.0
2018-May-13 09:58N 25°46' W 080°10'0 0.4
2018-May-13 09:30N 25°46' W 080°10'4 7.4
2018-May-13 09:00N 25°46' W 080°06'510.7
2018-May-13 08:31N 25°42' W 080°02'815.8
2018-May-13 08:00N 25°35' W 079°58'917.2
2018-May-13 07:30N 25°27' W 079°54'  

Dump ship's entire track history